ADDS METAR Data INFO
IDs: Format: Raw Decoded Include TAF

Data at: 1120 UTC 21 Feb 2018

KOFK 201456Z AUTO 32021G29KT 10SM FEW016 BKN110 M13/M17 A3006 RMK AO2 PK WND 32029/1443 SLP212 T11331167 53032
KOFK 201356Z AUTO 31012KT 10SM CLR M14/M17 A3005 RMK AO2 SLP208 T11441172
KOFK 201256Z AUTO 32012KT 10SM CLR M14/M17 A2997 RMK AO2 SLP181 T11441167
KOFK 201215Z AUTO 32016G22KT 10SM FEW008 SCT012 BKN044 M13/M16 A2997 RMK AO2 T11331161
KOFK 201156Z AUTO 32017G23KT 10SM BKN042 M13/M16 A2996 RMK AO2 SLP177 60000 T11331161 11094 21133 51019
KOFK 201056Z AUTO 31011G18KT 10SM FEW015 OVC036 M12/M14 A2995 RMK AO2 PRESRR SLP172 T11221144
KOFK 200956Z AUTO 33013G21KT 10SM FEW014 OVC034 M12/M14 A2992 RMK AO2 UPE12B36E45SNB0859E10B12E21 SLP160 P0000 T11171139
KOFK 200856Z AUTO 34010G20KT 10SM UP FEW015 OVC031 M11/M13 A2991 RMK AO2 UPB10E13B40SNE10B13E40 SLP156 P0000 60000 T11111133 51023
KOFK 200813Z AUTO 34011G20KT 9SM -SN SCT015 OVC030 M11/M13 A2990 RMK AO2 UPB10E13SNE10B13 P0000 T11061128
KOFK 200756Z AUTO 32010KT 4SM -SN BR SCT015 OVC028 M11/M12 A2990 RMK AO2 SLP155 P0000 T11061122
KOFK 200656Z AUTO 32010G15KT 4SM -SN BR FEW013 OVC027 M10/M12 A2989 RMK AO2 SLP150 P0000 T11001117
KOFK 200648Z AUTO 32010G15KT 4SM -SN BR SCT013 OVC027 M10/M11 A2989 RMK AO2 PRESRR P0000 T11001111
KOFK 200633Z AUTO 33009KT 310V010 2SM -SN BR BKN012 OVC027 M10/M11 A2986 RMK AO2 P0000 T11001111
KOFK 200606Z AUTO 35004KT 1 1/4SM -SN BR OVC010 M09/M11 A2984 RMK AO2 P0000 T10941106
KOFK 200556Z AUTO 34007G17KT 2 1/2SM -SN BR BKN010 OVC014 M09/M11 A2984 RMK AO2 CIG 007V012 SLP131 P0000 60000 I6000 T10941106 11083 21094 410331094 58008
KOFK 200456Z AUTO 36009G17KT 6SM -SN BR OVC007 M09/M10 A2984 RMK AO2 CIG 006V011 SLP132 P0000 T10941100
KOFK 200356Z AUTO 36003KT 4SM -SN BR OVC007 M09/M10 A2990 RMK AO2 SNE05B48 SLP153 P0000 I1000 T10891100
KOFK 200256Z AUTO 04010KT 4SM -SN BR OVC009 M09/M09 A2986 RMK AO2 SNE0158B39 SLP140 P0000 60000 T10891094 51003
KOFK 200246Z AUTO 01013KT 7SM -SN OVC009 M09/M10 A2985 RMK AO2 SNE0158B39 P0000 T10891100
KOFK 200156Z AUTO 03011KT 8SM -SN OVC011 M08/M10 A2986 RMK AO2 SNE08B47 SLP139 P0000 T10831100
KOFK 200056Z AUTO 02008KT 8SM -SN OVC011 M08/M10 A2986 RMK AO2 SNB03 SLP140 P0000 T10831100
KOFK 192356Z AUTO 36008KT 10SM OVC010 M08/M09 A2985 RMK AO2 SNE19 SLP134 P0000 60000 T10831094 11078 21083 51006